Time;durP1;ratioP1;P1;durP2;ratioP2;P2;SDS_P1;SDS_P2;PMS_P1;PMS_P2;Temp;Humidity;BMP_temperature;BMP_pressure;BME280_temperature;BME280_humidity;BME280_pressure;Samples;Min_cycle;Max_cycle;Signal;HPM_P1;HPM_P2
2024/04/02 00:00:15;;;;;;;;;;;9.40;99.90;;;8.45;100.00;100190.94;4153259;28;19941;-75
2024/04/02 00:02:15;;;;;;;;;;;9.30;99.90;;;8.49;100.00;100194.06;4153373;28;19921;-75
2024/04/02 00:04:16;;;;;;;;;;;9.20;99.90;;;8.42;100.00;100186.00;4168218;28;19920;-75
2024/04/02 00:06:17;;;;;;;;;;;9.20;99.90;;;8.38;100.00;100186.44;4184874;28;19908;-75
2024/04/02 00:08:18;;;;;;;;;;;9.20;99.90;;;8.37;100.00;100201.38;4152254;28;20422;-75
2024/04/02 00:10:18;;;;;;;;;;;9.10;99.90;;;8.36;100.00;100205.03;4185039;28;20283;-75
2024/04/02 00:12:19;;;;;;;;;;;9.10;99.90;;;8.38;100.00;100191.72;4152053;28;19916;-75
2024/04/02 00:14:20;;;;;;;;;;;9.10;99.90;;;8.41;100.00;100188.78;4184574;28;19909;-75
2024/04/02 00:16:21;;;;;;;;;;;9.10;99.90;;;8.31;100.00;100189.69;4152120;28;19909;-75
2024/04/02 00:18:21;;;;;;;;;;;9.10;99.90;;;8.25;100.00;100195.53;4153256;28;19916;-75
2024/04/02 00:20:22;;;;;;;;;;;9.10;99.90;;;8.19;100.00;100197.94;4184763;28;19915;-75
2024/04/02 00:22:23;;;;;;;;;;;9.00;99.90;;;8.05;100.00;100193.25;4152026;28;20360;-75
2024/04/02 00:24:23;;;;;;;;;;;8.90;99.90;;;7.97;100.00;100204.53;4153119;28;19913;-75
2024/04/02 00:26:24;;;;;;;;;;;8.80;99.90;;;7.88;100.00;100207.25;4153121;28;19919;-75
2024/04/02 00:28:25;;;;;;;;;;;8.70;99.90;;;7.84;100.00;100205.91;4153012;28;19920;-75
2024/04/02 00:30:28;;;;;;;;;;;8.60;99.90;;;7.78;100.00;100205.53;4152696;28;19910;-75
2024/04/02 00:32:28;;;;;;;;;;;8.60;99.90;;;7.82;100.00;100210.50;4184321;28;19909;-75
2024/04/02 00:34:29;;;;;;;;;;;8.60;99.90;;;7.76;100.00;100217.97;4152996;28;19910;-75
2024/04/02 00:36:30;;;;;;;;;;;8.50;99.90;;;7.69;100.00;100216.94;4184580;28;19935;-75
2024/04/02 00:38:31;;;;;;;;;;;8.50;99.90;;;7.69;100.00;100216.94;4151562;28;19909;-75
2024/04/02 00:40:32;;;;;;;;;;;8.40;99.90;;;7.75;100.00;100226.00;4184840;28;19909;-75
2024/04/02 00:42:32;;;;;;;;;;;8.50;99.90;;;7.70;100.00;100228.28;4153072;28;19920;-75
2024/04/02 00:44:33;;;;;;;;;;;8.50;99.90;;;7.68;100.00;100223.16;4184145;28;19935;-75
2024/04/02 00:46:34;;;;;;;;;;;8.50;99.90;;;7.69;100.00;100232.69;4151655;28;20373;-75
2024/04/02 00:48:35;;;;;;;;;;;8.40;99.90;;;7.72;100.00;100231.56;4184537;28;19909;-75
2024/04/02 00:50:36;;;;;;;;;;;8.40;99.90;;;7.71;100.00;100241.22;4184399;28;20330;-75
2024/04/02 00:52:39;;;;;;;;;;;8.50;99.90;;;7.62;100.00;100234.25;4152842;28;19916;-75
2024/04/02 00:54:40;;;;;;;;;;;8.40;99.90;;;7.64;100.00;100240.19;4184125;28;19917;-75
2024/04/02 00:56:41;;;;;;;;;;;8.40;99.90;;;7.68;100.00;100241.53;4151611;28;19913;-75
2024/04/02 00:58:42;;;;;;;;;;;8.40;99.90;;;7.69;100.00;100243.19;4152569;28;19916;-75
2024/04/02 01:00:43;;;;;;;;;;;8.40;99.90;;;7.71;100.00;100241.22;4184159;28;19975;-75
2024/04/02 01:02:44;;;;;;;;;;;8.50;99.90;;;7.90;100.00;100249.94;4151520;28;19914;-75
2024/04/02 01:04:47;;;;;;;;;;;8.60;99.90;;;8.08;100.00;100258.63;4167569;28;19913;-75
2024/04/02 01:06:48;;;;;;;;;;;8.70;99.90;;;8.14;100.00;100260.66;4151545;28;19909;-75
2024/04/02 01:08:48;;;;;;;;;;;8.80;99.90;;;8.18;100.00;100260.19;4174345;28;20387;-75
2024/04/02 01:10:49;;;;;;;;;;;8.80;99.90;;;8.20;100.00;100263.50;4136381;28;19914;-75
2024/04/02 01:12:50;;;;;;;;;;;8.90;99.90;;;8.26;100.00;100267.31;4136336;28;19917;-75
2024/04/02 01:14:51;;;;;;;;;;;8.90;99.90;;;8.21;100.00;100264.31;4167717;28;19939;-75
2024/04/02 01:16:51;;;;;;;;;;;8.90;99.90;;;8.23;100.00;100267.63;4136468;28;19917;-75
2024/04/02 01:18:52;;;;;;;;;;;8.90;99.90;;;8.39;100.00;100266.94;4136595;28;19910;-75
2024/04/02 01:20:53;;;;;;;;;;;9.00;99.90;;;8.42;100.00;100266.66;4136397;28;19956;-75
2024/04/02 01:22:54;;;;;;;;;;;9.00;99.90;;;8.43;100.00;100263.03;4136358;28;20296;-75
2024/04/02 01:24:59;;;;;;;;;;;9.10;99.90;;;8.46;100.00;100262.72;4136308;28;19918;-75
2024/04/02 01:27:02;;;;;;;;;;;9.10;99.90;;;8.58;100.00;100275.44;4167695;28;19909;-75
2024/04/02 01:29:03;;;;;;;;;;;9.20;99.90;;;8.60;100.00;100276.13;4167054;28;19917;-75
2024/04/02 01:31:04;;;;;;;;;;;9.30;99.90;;;8.66;100.00;100295.72;4149693;28;19948;-75
2024/04/02 01:33:05;;;;;;;;;;;9.30;99.90;;;8.82;100.00;100306.34;4184251;28;19940;-75
2024/04/02 01:35:05;;;;;;;;;;;9.40;99.90;;;8.93;100.00;100300.81;4152536;28;19921;-75
2024/04/02 01:37:06;;;;;;;;;;;9.50;99.90;;;9.04;100.00;100312.88;4152476;28;20419;-75
2024/04/02 01:39:07;;;;;;;;;;;9.70;99.90;;;9.06;100.00;100297.75;4184341;28;19916;-75
2024/04/02 01:41:08;;;;;;;;;;;9.70;99.90;;;9.09;100.00;100298.25;4152536;28;19910;-75
2024/04/02 01:43:08;;;;;;;;;;;9.70;99.90;;;8.96;100.00;100291.81;4185577;28;19913;-75
2024/04/02 01:45:09;;;;;;;;;;;9.60;99.90;;;8.78;100.00;100273.47;4154087;28;19920;-75
2024/04/02 01:47:10;;;;;;;;;;;9.60;99.90;;;8.60;100.00;100281.38;4137978;28;19910;-75
2024/04/02 01:49:11;;;;;;;;;;;9.40;99.90;;;8.44;100.00;100283.06;4155584;28;19914;-75
2024/04/02 01:51:11;;;;;;;;;;;9.30;99.90;;;8.26;100.00;100280.44;4186977;28;20306;-75
2024/04/02 01:53:12;;;;;;;;;;;9.10;99.90;;;8.21;100.00;100295.84;4155278;28;19909;-75
2024/04/02 01:55:13;;;;;;;;;;;9.00;99.90;;;8.12;100.00;100291.50;4186890;28;19913;-75
2024/04/02 01:57:13;;;;;;;;;;;8.90;99.90;;;8.01;100.00;100300.44;4155363;28;19916;-75
2024/04/02 01:59:14;;;;;;;;;;;8.80;99.90;;;7.92;100.00;100300.50;4155046;28;19910;-75
2024/04/02 02:01:15;;;;;;;;;;;8.70;99.90;;;7.91;100.00;100298.88;4154990;28;19924;-75
2024/04/02 02:03:17;;;;;;;;;;;8.70;99.90;;;7.92;100.00;100300.50;4155360;28;19921;-75
2024/04/02 02:05:18;;;;;;;;;;;8.60;99.90;;;7.80;100.00;100298.09;4186682;28;19913;-74
2024/04/02 02:07:18;;;;;;;;;;;8.60;99.90;;;7.84;100.00;100308.31;4186813;28;19962;-75
2024/04/02 02:09:19;;;;;;;;;;;8.60;99.90;;;7.75;100.00;100304.78;4154937;28;19909;-75
2024/04/02 02:11:20;;;;;;;;;;;8.60;99.90;;;7.82;100.00;100311.09;4154912;28;20399;-75
2024/04/02 02:13:21;;;;;;;;;;;8.50;99.90;;;7.72;100.00;100319.03;4153971;28;19909;-75
2024/04/02 02:15:21;;;;;;;;;;;8.50;99.90;;;7.66;100.00;100316.16;4153721;28;20337;-75
2024/04/02 02:17:22;;;;;;;;;;;8.50;99.90;;;7.70;100.00;100317.53;4186764;28;19915;-75
2024/04/02 02:19:23;;;;;;;;;;;8.50;99.90;;;7.69;100.00;100313.25;4153636;28;19957;-75
2024/04/02 02:21:23;;;;;;;;;;;8.50;99.90;;;7.60;100.00;100317.56;4186798;28;19908;-75
2024/04/02 02:23:25;;;;;;;;;;;8.40;99.90;;;7.60;100.00;100317.56;4155027;28;19919;-75
2024/04/02 02:25:27;;;;;;;;;;;8.40;99.90;;;7.62;100.00;100318.25;4186634;28;19913;-75
2024/04/02 02:27:27;;;;;;;;;;;8.40;99.90;;;7.64;100.00;100320.75;4153462;28;19909;-75
2024/04/02 02:29:28;;;;;;;;;;;8.40;99.90;;;7.59;100.00;100309.84;4186405;28;19909;-75
2024/04/02 02:31:29;;;;;;;;;;;8.40;99.90;;;7.62;100.00;100320.03;4153747;28;19909;-75
2024/04/02 02:33:30;;;;;;;;;;;8.40;99.90;;;7.56;100.00;100328.50;4154736;28;19917;-75
2024/04/02 02:35:30;;;;;;;;;;;8.30;99.90;;;7.55;100.00;100330.31;4154634;28;19909;-75
2024/04/02 02:37:31;;;;;;;;;;;8.40;99.90;;;7.57;100.00;100335.41;4154715;28;19916;-75
2024/04/02 02:39:32;;;;;;;;;;;8.40;99.90;;;7.59;100.00;100339.53;4186511;28;19948;-75
2024/04/02 02:41:33;;;;;;;;;;;8.30;99.90;;;7.60;100.00;100341.19;4154546;28;20335;-75
2024/04/02 02:43:34;;;;;;;;;;;8.30;99.90;;;7.61;100.00;100348.13;4154575;28;19910;-75
2024/04/02 02:45:35;;;;;;;;;;;8.40;99.90;;;7.77;100.00;100344.81;4154582;28;19913;-75
2024/04/02 02:47:36;;;;;;;;;;;8.40;99.90;;;7.77;100.00;100353.53;4154597;28;19919;-75
2024/04/02 02:49:37;;;;;;;;;;;8.50;99.90;;;7.82;100.00;100340.78;4154479;28;19913;-75
2024/04/02 02:51:37;;;;;;;;;;;8.50;99.90;;;7.82;100.00;100346.03;4154356;28;19913;-75
2024/04/02 02:53:38;;;;;;;;;;;8.50;99.90;;;7.98;100.00;100353.25;4186168;28;19913;-75
2024/04/02 02:55:39;;;;;;;;;;;8.60;99.90;;;7.95;100.00;100340.41;4153923;28;19916;-75
2024/04/02 02:57:39;;;;;;;;;;;8.60;99.90;;;8.02;100.00;100351.16;4186109;28;19909;-75
2024/04/02 02:59:40;;;;;;;;;;;8.70;99.90;;;8.04;100.00;100349.19;4153854;28;19916;-75
2024/04/02 03:01:41;;;;;;;;;;;8.70;99.90;;;8.12;100.00;100352.72;4154068;28;20399;-75
2024/04/02 03:03:42;;;;;;;;;;;8.80;99.90;;;8.15;100.00;100347.19;4178244;28;20315;-75
2024/04/02 03:05:53;;;;;;;;;;;8.80;99.90;;;8.23;100.00;100355.16;4136728;28;20004;-75
2024/04/02 03:07:54;;;;;;;;;;;8.90;99.90;;;8.22;100.00;100350.03;4170523;28;19998;-75
2024/04/02 03:09:55;;;;;;;;;;;8.90;99.90;;;8.19;100.00;100343.28;4138044;28;20369;-75
2024/04/02 03:11:55;;;;;;;;;;;8.90;99.90;;;8.26;100.00;100348.78;4137934;28;20343;-75
2024/04/02 03:14:01;;;;;;;;;;;9.00;99.90;;;8.19;100.00;100347.72;4137664;28;20266;-75
2024/04/02 03:16:03;;;;;;;;;;;8.90;99.90;;;8.17;100.00;100349.66;4169378;28;19916;-75
2024/04/02 03:18:04;;;;;;;;;;;8.90;99.90;;;8.12;100.00;100354.56;4137702;28;19996;-75
2024/04/02 03:20:05;;;;;;;;;;;8.80;99.90;;;8.03;100.00;100344.94;4172580;28;19935;-75
2024/04/02 03:22:06;;;;;;;;;;;8.80;99.90;;;7.96;100.00;100341.25;4152938;28;20284;-75
2024/04/02 03:24:06;;;;;;;;;;;8.70;99.90;;;7.98;100.00;100341.91;4153803;28;19909;-75
2024/04/02 03:26:07;;;;;;;;;;;8.70;99.90;;;8.02;100.00;100343.28;4185728;28;19915;-75
2024/04/02 03:28:08;;;;;;;;;;;8.70;99.90;;;8.02;100.00;100346.75;4153987;28;19909;-75
2024/04/02 03:30:09;;;;;;;;;;;8.70;99.90;;;7.93;100.00;100346.81;4153742;28;19916;-75
2024/04/02 03:32:10;;;;;;;;;;;8.70;99.90;;;7.85;100.00;100347.56;4153819;28;20398;-75
2024/04/02 03:34:11;;;;;;;;;;;8.60;99.90;;;7.82;100.00;100347.03;4185388;28;19909;-75
2024/04/02 03:36:12;;;;;;;;;;;8.60;99.90;;;7.90;100.00;100354.97;4153944;28;19932;-75
2024/04/02 03:38:12;;;;;;;;;;;8.60;99.90;;;7.97;100.00;100356.03;4185494;28;19923;-75
2024/04/02 03:40:13;;;;;;;;;;;8.60;99.90;;;7.95;100.00;100363.22;4153639;28;20291;-75
2024/04/02 03:42:14;;;;;;;;;;;8.70;99.90;;;7.92;100.00;100353.00;4153627;28;19909;-75
2024/04/02 03:44:16;;;;;;;;;;;8.60;99.90;;;7.97;100.00;100358.66;4184911;28;19964;-75
2024/04/02 03:46:16;;;;;;;;;;;8.60;99.90;;;7.92;100.00;100363.53;4153825;28;19913;-75
2024/04/02 03:48:17;;;;;;;;;;;8.60;99.90;;;7.95;100.00;100374.56;4185281;28;19915;-75
2024/04/02 03:50:18;;;;;;;;;;;8.60;99.90;;;7.90;100.00;100375.97;4153763;28;19910;-75
2024/04/02 03:52:18;;;;;;;;;;;8.60;99.90;;;7.82;100.00;100373.28;4168614;28;19940;-75
2024/04/02 03:54:19;;;;;;;;;;;8.60;99.90;;;7.78;100.00;100364.88;4153609;28;19910;-75
2024/04/02 03:56:20;;;;;;;;;;;8.60;99.90;;;7.75;100.00;100363.38;4168385;28;19915;-75
2024/04/02 03:58:21;;;;;;;;;;;8.60;99.90;;;7.72;100.00;100370.69;4185383;28;19909;-75
2024/04/02 04:00:21;;;;;;;;;;;8.50;99.90;;;7.67;100.00;100372.94;4153228;28;20388;-75
2024/04/02 04:02:22;;;;;;;;;;;8.50;99.90;;;7.61;100.00;100366.50;4152948;28;19913;-75
2024/04/02 04:04:23;;;;;;;;;;;8.40;99.90;;;7.54;100.00;100370.66;4151930;28;19914;-75
2024/04/02 04:06:23;;;;;;;;;;;8.40;99.90;;;7.56;100.00;100373.13;4150076;28;19924;-75
2024/04/02 04:08:28;;;;;;;;;;;8.40;99.90;;;7.55;100.00;100369.69;4153439;28;20360;-75
2024/04/02 04:10:29;;;;;;;;;;;8.30;99.90;;;7.63;100.00;100379.44;4153335;28;19909;-75
2024/04/02 04:12:30;;;;;;;;;;;8.30;99.90;;;7.70;100.00;100383.16;4153204;28;19967;-75
2024/04/02 04:14:30;;;;;;;;;;;8.30;99.90;;;7.75;100.00;100375.66;4154072;28;19915;-75
2024/04/02 04:16:31;;;;;;;;;;;8.40;99.90;;;7.91;100.00;100386.34;4161198;28;19909;-75
2024/04/02 04:18:32;;;;;;;;;;;8.50;99.90;;;7.95;100.00;100381.59;4153226;28;19909;-75
2024/04/02 04:20:34;;;;;;;;;;;8.60;99.90;;;7.90;100.00;100376.81;4153159;28;19909;-75
2024/04/02 04:22:34;;;;;;;;;;;8.70;99.90;;;7.93;100.00;100389.66;4152080;28;20028;-75
2024/04/02 04:24:35;;;;;;;;;;;8.70;99.90;;;8.00;100.00;100390.72;4153082;28;19913;-75
2024/04/02 04:26:36;;;;;;;;;;;8.70;99.90;;;7.99;100.00;100390.84;4153131;28;19913;-75
2024/04/02 04:28:37;;;;;;;;;;;8.70;99.90;;;7.93;100.00;100392.28;4152445;28;19917;-75
2024/04/02 04:30:37;;;;;;;;;;;8.70;99.90;;;7.84;100.00;100392.31;4153100;28;19963;-75
2024/04/02 04:32:38;;;;;;;;;;;8.70;99.90;;;7.78;100.00;100384.06;4184748;28;19916;-75
2024/04/02 04:34:39;;;;;;;;;;;8.60;99.90;;;7.75;100.00;100389.63;4153093;28;20284;-75
2024/04/02 04:36:40;;;;;;;;;;;8.60;99.90;;;7.79;100.00;100390.94;4151652;28;19909;-75
2024/04/02 04:38:41;;;;;;;;;;;8.60;99.90;;;7.84;100.00;100392.31;4151846;28;19976;-75
2024/04/02 04:40:42;;;;;;;;;;;8.60;99.90;;;7.84;100.00;100401.03;4184504;28;19908;-75
2024/04/02 04:42:43;;;;;;;;;;;8.60;99.90;;;7.82;100.00;100396.91;4151804;28;20288;-75
2024/04/02 04:44:44;;;;;;;;;;;8.60;99.90;;;7.84;100.00;100392.31;4184073;28;19913;-75
2024/04/02 04:46:44;;;;;;;;;;;8.60;99.90;;;7.85;100.00;100396.63;4135501;28;19968;-75
2024/04/02 04:48:45;;;;;;;;;;;8.60;99.90;;;7.85;100.00;100401.88;4136660;28;19910;-75
2024/04/02 04:50:59;;;;;;;;;;;8.60;99.90;;;7.99;100.00;100404.00;4136559;28;19913;-75
2024/04/02 04:53:00;;;;;;;;;;;8.70;99.90;;;8.04;100.00;100409.63;4136657;28;19913;-75
2024/04/02 04:55:01;;;;;;;;;;;8.80;99.90;;;8.13;100.00;100403.47;4171518;28;19999;-75
2024/04/02 04:57:02;;;;;;;;;;;8.90;99.90;;;8.24;100.00;100411.16;4153015;28;19924;-75
2024/04/02 04:59:03;;;;;;;;;;;9.00;99.90;;;8.29;100.00;100403.69;4152662;28;19957;-75
2024/04/02 05:01:04;;;;;;;;;;;9.00;99.90;;;8.42;100.00;100419.91;4183824;28;19920;-75
2024/04/02 05:03:05;;;;;;;;;;;9.10;99.90;;;8.46;100.00;100400.22;4151406;28;19967;-75
2024/04/02 05:05:06;;;;;;;;;;;9.20;99.90;;;8.54;100.00;100410.78;4152648;28;19917;-75
2024/04/02 05:07:21;;;;;;;;;;;9.30;99.90;;;8.58;100.00;100420.03;4135188;28;19941;-75
2024/04/02 05:09:22;;;;;;;;;;;9.30;99.90;;;8.65;100.00;100413.22;4168503;28;19944;-75
2024/04/02 05:11:23;;;;;;;;;;;9.40;99.90;;;8.68;100.00;100420.81;4168079;28;19915;-75
2024/04/02 05:13:24;;;;;;;;;;;9.40;99.90;;;8.74;100.00;100414.09;4135235;28;19910;-75
2024/04/02 05:15:25;;;;;;;;;;;9.40;99.90;;;8.75;100.00;100413.13;4142700;28;19913;-75
2024/04/02 05:17:27;;;;;;;;;;;9.50;99.90;;;8.82;100.00;100412.38;4153381;28;20272;-75
2024/04/02 05:19:27;;;;;;;;;;;9.50;99.90;;;8.80;100.00;100414.31;4187594;28;20454;-75
2024/04/02 05:21:28;;;;;;;;;;;9.50;99.90;;;8.77;100.00;100414.63;4155979;28;19916;-75
2024/04/02 05:23:29;;;;;;;;;;;9.50;99.90;;;8.73;100.00;100410.66;4155809;28;19910;-75
2024/04/02 05:25:30;;;;;;;;;;;9.50;99.90;;;8.67;100.00;100413.88;4186007;28;19940;-75
2024/04/02 05:27:30;;;;;;;;;;;9.40;99.90;;;8.50;100.00;100406.84;4139716;28;19910;-75
2024/04/02 05:29:31;;;;;;;;;;;9.30;99.90;;;8.36;100.00;100401.28;4170911;28;19943;-75
2024/04/02 05:31:32;;;;;;;;;;;9.20;99.90;;;8.28;100.00;100404.66;4139467;28;19916;-75
2024/04/02 05:33:32;;;;;;;;;;;9.20;99.90;;;8.22;100.00;100407.84;4139414;28;19909;-75
2024/04/02 05:35:33;;;;;;;;;;;9.00;99.90;;;8.13;100.00;100411.34;4146455;28;19909;-75
2024/04/02 05:37:35;;;;;;;;;;;9.00;99.90;;;8.03;100.00;100406.19;4187407;28;19908;-75
2024/04/02 05:39:35;;;;;;;;;;;8.90;99.90;;;7.94;100.00;100407.06;4155655;28;19913;-75
2024/04/02 05:41:36;;;;;;;;;;;8.80;99.90;;;7.89;100.00;100413.72;4187159;28;19913;-75
2024/04/02 05:43:37;;;;;;;;;;;8.70;99.90;;;7.80;100.00;100403.13;4155493;28;19963;-76
2024/04/02 05:45:37;;;;;;;;;;;8.60;99.90;;;7.80;100.00;100407.53;4155599;28;19914;-75
2024/04/02 05:47:38;;;;;;;;;;;8.60;99.90;;;7.71;100.00;100404.00;4155548;28;19909;-75
2024/04/02 05:49:39;;;;;;;;;;;8.50;99.90;;;7.77;100.00;100416.53;4187117;28;19909;-75
2024/04/02 05:51:40;;;;;;;;;;;8.50;99.90;;;7.80;100.00;100411.00;4155493;28;19909;-75
2024/04/02 05:53:43;;;;;;;;;;;8.60;99.90;;;7.76;100.00;100396.50;4155446;28;19913;-75
2024/04/02 05:55:43;;;;;;;;;;;8.60;99.90;;;7.86;100.00;100406.97;4186778;28;19909;-75
2024/04/02 05:57:45;;;;;;;;;;;8.60;99.90;;;7.93;100.00;100404.56;4155490;28;19915;-75
2024/04/02 05:59:46;;;;;;;;;;;8.60;99.90;;;7.97;100.00;100403.31;4155011;28;19913;-75
2024/04/02 06:01:47;;;;;;;;;;;8.70;99.90;;;8.12;100.00;100401.84;4187232;28;19967;-75
2024/04/02 06:03:48;;;;;;;;;;;8.80;99.90;;;8.27;100.00;100410.88;4155415;28;19909;-75
2024/04/02 06:05:48;;;;;;;;;;;8.90;99.90;;;8.43;100.00;100405.78;4169977;28;19959;-75
2024/04/02 06:07:54;;;;;;;;;;;9.10;99.90;;;8.56;100.00;100410.66;4153801;28;19932;-75
2024/04/02 06:09:55;;;;;;;;;;;9.20;99.90;;;8.68;100.00;100415.53;4154907;28;19910;-75
2024/04/02 06:11:55;;;;;;;;;;;9.30;99.90;;;8.77;100.00;100413.81;4137650;28;20301;-74
2024/04/02 06:13:56;;;;;;;;;;;9.40;99.90;;;8.88;100.00;100418.81;4186554;28;19912;-74
2024/04/02 06:15:57;;;;;;;;;;;9.50;99.90;;;9.02;100.00;100430.59;4154578;28;19913;-74
2024/04/02 06:17:58;;;;;;;;;;;9.70;99.90;;;9.06;100.00;100430.13;4144213;28;19909;-74
2024/04/02 06:19:59;;;;;;;;;;;9.70;99.90;;;9.09;100.00;100439.50;4155088;28;20390;-74
2024/04/02 06:22:00;;;;;;;;;;;9.80;99.90;;;9.15;100.00;100436.28;4154662;28;19909;-73
2024/04/02 06:24:01;;;;;;;;;;;9.80;99.90;;;9.18;100.00;100441.22;4154744;28;19914;-73
2024/04/02 06:26:02;;;;;;;;;;;9.90;99.90;;;9.24;100.00;100432.72;4154899;28;19909;-74
2024/04/02 06:28:02;;;;;;;;;;;9.90;99.90;;;9.27;100.00;100435.03;4155008;28;19909;-74
2024/04/02 06:30:04;;;;;;;;;;;10.00;99.90;;;9.32;100.00;100430.13;4185372;28;20036;-74
2024/04/02 06:32:05;;;;;;;;;;;10.00;99.90;;;9.37;100.00;100435.78;4186330;28;19912;-77
2024/04/02 06:34:06;;;;;;;;;;;10.10;99.90;;;9.44;100.00;100439.41;4155048;28;20396;-74
2024/04/02 06:36:07;;;;;;;;;;;10.10;99.90;;;9.48;100.00;100446.03;4178680;28;19913;-75
2024/04/02 06:38:07;;;;;;;;;;;10.20;99.90;;;9.49;100.00;100446.84;4138455;28;19914;-75
2024/04/02 06:40:08;;;;;;;;;;;10.20;99.90;;;9.52;100.00;100442.09;4138365;28;19910;-75
2024/04/02 06:42:09;;;;;;;;;;;10.20;99.90;;;9.55;100.00;100446.22;4169859;28;19913;-75
2024/04/02 06:44:10;;;;;;;;;;;10.30;99.90;;;9.54;100.00;100445.41;4138356;28;19910;-76
2024/04/02 06:46:11;;;;;;;;;;;10.30;99.90;;;9.60;100.00;100442.16;4149359;28;19909;-76
2024/04/02 06:48:11;;;;;;;;;;;10.30;99.90;;;9.64;100.00;100451.38;4186089;28;19909;-77
2024/04/02 06:50:12;;;;;;;;;;;10.30;99.90;;;9.66;100.00;100443.31;4169685;28;19909;-76
2024/04/02 06:52:13;;;;;;;;;;;10.30;99.90;;;9.71;100.00;100436.59;4154523;28;19909;-76
2024/04/02 06:54:15;;;;;;;;;;;10.40;99.90;;;9.80;100.00;100451.44;4154485;28;19910;-76
2024/04/02 06:56:16;;;;;;;;;;;10.50;99.90;;;9.83;100.00;100451.13;4185504;28;20353;-76
2024/04/02 06:58:17;;;;;;;;;;;10.50;99.90;;;9.89;100.00;100455.78;4169708;28;19913;-76
2024/04/02 07:00:19;;;;;;;;;;;10.60;99.90;;;9.88;100.00;100454.13;4136829;28;19918;-76
2024/04/02 07:02:19;;;;;;;;;;;10.60;99.90;;;9.84;100.00;100454.59;4147755;28;19956;-76
2024/04/02 07:04:20;;;;;;;;;;;10.60;99.90;;;9.83;100.00;100461.66;4153098;28;19909;-77
2024/04/02 07:06:21;;;;;;;;;;;10.60;99.90;;;9.77;100.00;100456.19;4182967;28;19921;-77
2024/04/02 07:08:24;;;;;;;;;;;10.50;99.90;;;9.80;100.00;100466.44;4144083;28;19910;-76
2024/04/02 07:10:25;;;;;;;;;;;10.60;99.90;;;9.80;100.00;100466.44;4154255;28;20384;-76
2024/04/02 07:12:26;;;;;;;;;;;10.50;99.90;;;9.93;100.00;100470.28;4185778;28;19919;-77
2024/04/02 07:14:27;;;;;;;;;;;10.60;99.90;;;10.08;100.00;100465.22;4154006;28;19917;-76
2024/04/02 07:16:27;;;;;;;;;;;10.70;99.90;;;10.22;100.00;100458.53;4154198;28;19914;-76
2024/04/02 07:18:37;;;;;;;;;;;10.80;99.90;;;10.46;100.00;100471.78;4185884;28;19955;-77
2024/04/02 07:20:38;;;;;;;;;;;11.00;99.90;;;10.62;100.00;100466.56;4149961;28;20431;-76
2024/04/02 07:22:39;;;;;;;;;;;11.20;99.90;;;10.84;100.00;100468.53;4185813;28;19912;-76
2024/04/02 07:24:40;;;;;;;;;;;11.40;99.90;;;10.96;100.00;100463.78;4153778;28;19913;-76
2024/04/02 07:26:41;;;;;;;;;;;11.50;99.90;;;11.02;100.00;100469.19;4153851;28;19909;-76
2024/04/02 07:28:41;;;;;;;;;;;11.60;99.90;;;11.03;100.00;100468.22;4153751;28;19909;-76
2024/04/02 07:30:42;;;;;;;;;;;11.70;99.90;;;11.00;100.00;100462.44;4153804;28;19909;-76
2024/04/02 07:32:43;;;;;;;;;;;11.70;99.90;;;11.09;100.00;100469.38;4153949;28;19909;-76
2024/04/02 07:34:44;;;;;;;;;;;11.70;99.90;;;11.11;100.00;100470.84;4175590;28;19909;-76
2024/04/02 07:36:44;;;;;;;;;;;11.80;99.90;;;11.17;100.00;100473.84;4152274;28;19910;-76
2024/04/02 07:38:45;;;;;;;;;;;11.80;99.90;;;11.20;100.00;100469.03;4185390;28;19915;-76
2024/04/02 07:40:46;;;;;;;;;;;11.90;99.90;;;11.19;100.00;100475.31;4152502;28;19913;-76
2024/04/02 07:42:47;;;;;;;;;;;11.90;99.90;;;11.21;100.00;100480.41;4153802;28;20438;-76
2024/04/02 07:44:49;;;;;;;;;;;11.90;99.90;;;11.14;100.00;100487.38;4185153;28;19943;-77
2024/04/02 07:46:49;;;;;;;;;;;11.90;99.90;;;11.14;100.00;100490.00;4182955;28;19913;-77
2024/04/02 07:48:50;;;;;;;;;;;11.80;99.90;;;11.06;100.00;100499.56;4137543;28;19916;-76
2024/04/02 07:50:51;;;;;;;;;;;11.80;99.90;;;11.04;100.00;100495.44;4168847;28;20441;-75
2024/04/02 07:52:52;;;;;;;;;;;11.80;99.90;;;10.90;100.00;100496.91;4137339;28;19910;-77
2024/04/02 07:54:53;;;;;;;;;;;11.70;99.90;;;10.95;100.00;100504.34;4168668;28;19909;-76
2024/04/02 09:00:00;;;;;;;;;;;11.90;99.90;;;11.24;100.00;100533.72;4067303;24;19969;-56
2024/04/02 09:02:02;;;;;;;;;;;12.00;99.90;;;11.31;100.00;100518.88;3989490;29;19976;-57
2024/04/02 09:04:03;;;;;;;;;;;12.00;99.90;;;11.45;100.00;100520.84;4002316;29;19936;-57
2024/04/02 09:06:04;;;;;;;;;;;12.10;99.90;;;11.64;100.00;100524.94;4003374;29;19974;-57
2024/04/02 09:08:06;;;;;;;;;;;12.20;99.90;;;11.76;100.00;100520.16;4000540;29;19912;-59
2024/04/02 09:10:07;;;;;;;;;;;12.40;99.90;;;12.01;100.00;100517.25;3997073;29;19916;-58
2024/04/02 09:12:07;;;;;;;;;;;12.60;99.90;;;12.18;100.00;100507.47;4005209;29;19913;-57
2024/04/02 09:14:08;;;;;;;;;;;12.70;99.90;;;12.31;100.00;100504.25;3995953;29;20086;-57
2024/04/02 09:16:10;;;;;;;;;;;12.90;99.90;;;12.45;100.00;100503.53;3996823;29;19917;-57
2024/04/02 09:18:11;;;;;;;;;;;13.10;99.90;;;12.75;100.00;100513.28;3996985;29;19917;-57
2024/04/02 09:20:13;;;;;;;;;;;13.30;99.90;;;12.96;100.00;100508.13;3996179;29;19913;-57
2024/04/02 09:22:17;;;;;;;;;;;13.50;99.90;;;13.08;100.00;100514.69;4002749;29;20376;-57
2024/04/02 09:24:17;;;;;;;;;;;13.70;99.90;;;13.14;100.00;100506.03;3995839;29;19929;-57
2024/04/02 09:26:22;;;;;;;;;;;13.80;99.90;;;13.22;100.00;100516.59;3995743;29;20108;-53
2024/04/02 09:28:23;;;;;;;;;;;14.00;99.90;;;13.19;100.00;100511.66;3996010;29;19913;-48
2024/04/02 09:30:26;;;;;;;;;;;14.00;99.90;;;13.12;100.00;100513.34;3996436;29;19912;-47
2024/04/02 09:32:28;;;;;;;;;;;13.90;99.90;;;12.92;100.00;100509.50;3984243;29;19913;-50
2024/04/02 09:34:29;;;;;;;;;;;13.80;99.90;;;12.95;100.00;100514.44;3987951;29;20003;-49
2024/04/02 09:36:46;;;;;;;;;;;13.80;99.90;;;13.05;100.00;100506.28;3979777;29;19913;-48
2024/04/02 09:38:47;;;;;;;;;;;13.80;99.90;;;13.19;100.00;100511.66;3995987;29;20329;-52
2024/04/02 09:40:49;;;;;;;;;;;13.90;99.90;;;13.17;100.00;100505.69;3981632;29;19913;-49
2024/04/02 09:42:50;;;;;;;;;;;14.00;99.90;;;13.34;100.00;100509.03;3989869;29;19965;-48
2024/04/02 09:44:52;;;;;;;;;;;14.10;99.90;;;13.35;100.00;100497.41;3986643;29;19917;-48
2024/04/02 09:46:53;;;;;;;;;;;14.10;99.90;;;13.46;100.00;100501.47;3997998;29;19912;-50
2024/04/02 09:48:56;;;;;;;;;;;14.20;99.90;;;13.53;100.00;100507.69;3980262;29;19912;-52
2024/04/02 09:50:58;;;;;;;;;;;14.30;99.90;;;13.41;100.00;100501.19;3983497;29;19912;-48
2024/04/02 09:52:59;;;;;;;;;;;14.30;99.90;;;13.51;100.00;100485.84;4002364;29;19960;-51
2024/04/02 09:55:00;;;;;;;;;;;14.30;99.90;;;13.43;100.00;100492.06;3979122;29;19917;-52
2024/04/02 09:57:02;;;;;;;;;;;14.30;99.90;;;13.42;100.00;100497.53;3994747;29;19916;-54
2024/04/02 09:59:04;;;;;;;;;;;14.30;99.90;;;13.63;100.00;100495.00;3994944;29;19919;-55
2024/04/02 10:01:06;;;;;;;;;;;14.30;99.90;;;13.55;100.00;100497.72;3990990;29;19920;-53
2024/04/02 10:03:09;;;;;;;;;;;14.30;99.90;;;13.46;100.00;100504.94;3999287;29;19917;-54
2024/04/02 10:05:20;;;;;;;;;;;14.30;99.90;;;13.58;100.00;100498.19;3981873;29;20008;-49
2024/04/02 10:07:29;;;;;;;;;;;14.40;99.90;;;13.86;100.00;100495.72;3998321;29;20011;-54
2024/04/02 10:09:42;;;;;;;;;;;14.60;99.90;;;14.03;100.00;100497.22;4013010;29;19961;-54
2024/04/02 10:11:46;;;;;;;;;;;14.70;99.90;;;14.08;100.00;100494.81;4003203;29;19916;-55
2024/04/02 10:13:48;;;;;;;;;;;14.80;99.90;;;14.04;100.00;100493.53;3997433;29;20404;-54
2024/04/02 10:15:52;;;;;;;;;;;14.80;99.90;;;14.04;100.00;100501.47;3997716;29;19999;-53